createdAt,value
2022-12-06T00:01:12.566Z,10.40
2022-12-06T00:04:03.773Z,10.77
2022-12-06T00:06:51.707Z,9.83
2022-12-06T00:09:38.632Z,9.70
2022-12-06T00:12:25.493Z,9.73
2022-12-06T00:15:12.488Z,10.60
2022-12-06T00:18:00.877Z,9.77
2022-12-06T00:20:47.520Z,9.97
2022-12-06T00:23:37.380Z,9.17
2022-12-06T00:26:24.958Z,9.07
2022-12-06T00:29:14.584Z,9.47
2022-12-06T00:32:03.704Z,9.13
2022-12-06T00:34:53.494Z,8.27
2022-12-06T00:37:40.470Z,9.40
2022-12-06T00:40:27.145Z,9.47
2022-12-06T00:43:14.030Z,9.93
2022-12-06T00:46:01.187Z,9.73
2022-12-06T00:48:52.149Z,8.57
2022-12-06T00:51:40.448Z,8.17
2022-12-06T00:54:27.469Z,8.60
2022-12-06T00:57:16.299Z,8.00
2022-12-06T01:00:02.808Z,9.20
2022-12-06T01:02:49.625Z,7.70
2022-12-06T01:05:46.528Z,9.00
2022-12-06T01:08:35.268Z,8.17
2022-12-06T01:11:23.308Z,9.07
2022-12-06T01:14:10.068Z,9.63
2022-12-06T01:16:56.755Z,8.57
2022-12-06T01:19:43.585Z,10.43
2022-12-06T01:22:30.464Z,9.63
2022-12-06T01:25:24.100Z,8.27
2022-12-06T01:28:14.450Z,9.63
2022-12-06T01:31:01.703Z,8.23
2022-12-06T01:33:48.698Z,9.53
2022-12-06T01:36:35.184Z,9.33
2022-12-06T01:39:22.058Z,8.07
2022-12-06T01:42:15.618Z,9.53
2022-12-06T01:45:16.312Z,9.07
2022-12-06T01:48:03.463Z,9.10
2022-12-06T01:50:50.514Z,8.70
2022-12-06T01:53:38.649Z,9.27
2022-12-06T01:56:27.742Z,9.27
2022-12-06T01:59:20.230Z,9.23
2022-12-06T02:02:08.377Z,10.10
2022-12-06T02:04:57.430Z,8.97
2022-12-06T02:07:44.921Z,9.23
2022-12-06T02:10:32.053Z,9.37
2022-12-06T02:13:19.089Z,8.57
2022-12-06T02:16:18.837Z,9.90
2022-12-06T02:19:40.796Z,9.07
2022-12-06T02:22:38.826Z,10.53
2022-12-06T02:25:43.762Z,10.87
2022-12-06T02:29:30.831Z,10.43
2022-12-06T02:32:24.157Z,9.37
2022-12-06T02:35:24.271Z,10.03
2022-12-06T02:38:17.756Z,9.80
2022-12-06T02:41:13.765Z,9.13
2022-12-06T02:44:05.126Z,9.10
2022-12-06T02:46:52.553Z,8.40
2022-12-06T02:49:49.792Z,9.10
2022-12-06T02:52:41.109Z,8.60
2022-12-06T02:55:31.330Z,8.27
2022-12-06T02:58:17.930Z,6.57
2022-12-06T03:01:10.679Z,7.73
2022-12-06T03:04:35.154Z,7.23
2022-12-06T03:07:41.055Z,8.10
2022-12-06T03:10:46.167Z,7.30
2022-12-06T03:13:40.967Z,7.30
2022-12-06T03:16:30.563Z,7.87
2022-12-06T03:19:20.846Z,7.13
2022-12-06T03:22:12.093Z,7.37
2022-12-06T03:25:07.365Z,7.23
2022-12-06T03:27:57.155Z,7.40
2022-12-06T03:30:48.652Z,7.97
2022-12-06T03:33:39.972Z,7.57
2022-12-06T03:36:29.816Z,6.73
2022-12-06T03:39:34.181Z,6.40
2022-12-06T03:42:23.668Z,7.17
2022-12-06T03:45:14.997Z,6.90
2022-12-06T03:48:06.702Z,7.10
2022-12-06T03:50:59.052Z,7.77
2022-12-06T03:53:48.291Z,7.50
2022-12-06T03:56:37.038Z,7.43
2022-12-06T03:59:27.795Z,7.20
2022-12-06T04:02:14.473Z,8.27
2022-12-06T04:05:01.261Z,8.20
2022-12-06T04:07:50.728Z,6.43
2022-12-06T04:10:37.023Z,6.80
2022-12-06T04:13:23.917Z,7.27
2022-12-06T04:16:26.635Z,6.60
2022-12-06T04:19:13.409Z,6.97
2022-12-06T04:22:17.577Z,6.97
2022-12-06T04:25:04.541Z,7.03
2022-12-06T04:28:11.950Z,6.67
2022-12-06T04:31:21.533Z,7.30
2022-12-06T04:34:33.182Z,8.03
2022-12-06T04:37:37.260Z,8.00
2022-12-06T04:40:24.065Z,7.13
2022-12-06T04:43:28.514Z,7.87
2022-12-06T04:46:16.943Z,7.70
2022-12-06T04:49:06.296Z,7.40
2022-12-06T04:52:00.395Z,6.87
2022-12-06T04:54:50.981Z,5.67
2022-12-06T04:57:41.751Z,6.07
2022-12-06T05:00:30.768Z,6.07
2022-12-06T05:03:22.330Z,6.70
2022-12-06T05:06:14.482Z,5.77
2022-12-06T05:09:05.391Z,5.63
2022-12-06T05:11:52.269Z,6.07
2022-12-06T05:14:39.138Z,5.83
2022-12-06T05:17:26.806Z,6.87
2022-12-06T05:20:14.930Z,5.90
2022-12-06T05:23:04.447Z,5.83
2022-12-06T05:26:00.528Z,6.07
2022-12-06T05:28:50.421Z,6.17
2022-12-06T05:31:37.318Z,6.10
2022-12-06T05:34:25.004Z,6.10
2022-12-06T05:37:13.910Z,5.90
2022-12-06T05:40:02.986Z,5.90
2022-12-06T05:42:51.973Z,5.77
2022-12-06T05:45:39.492Z,5.40
2022-12-06T05:48:26.033Z,5.37
2022-12-06T05:51:15.013Z,5.80
2022-12-06T05:54:04.731Z,4.90
2022-12-06T05:56:53.894Z,5.60
2022-12-06T05:59:43.967Z,4.97
2022-12-06T06:02:30.737Z,5.27
2022-12-06T06:05:17.360Z,4.40
2022-12-06T06:08:03.953Z,4.77
2022-12-06T06:10:53.184Z,4.87
2022-12-06T06:13:41.876Z,4.30
2022-12-06T06:16:30.263Z,3.93
2022-12-06T06:19:19.682Z,3.73
2022-12-06T06:22:15.630Z,4.63
2022-12-06T06:25:03.511Z,4.97
2022-12-06T06:27:50.670Z,4.73
2022-12-06T06:30:40.434Z,4.57
2022-12-06T06:33:40.964Z,4.40
2022-12-06T06:36:31.720Z,4.40
2022-12-06T06:39:18.532Z,5.00
2022-12-06T06:45:58.387Z,3.73
2022-12-06T06:48:48.227Z,3.60
2022-12-06T06:51:35.175Z,3.97
2022-12-06T06:54:26.332Z,3.77
2022-12-06T06:57:18.103Z,4.63
2022-12-06T07:00:10.871Z,4.07
2022-12-06T07:02:57.306Z,3.93
2022-12-06T07:06:01.010Z,3.70
2022-12-06T07:08:47.967Z,3.53
2022-12-06T07:11:36.938Z,4.10
2022-12-06T07:14:25.785Z,4.10
2022-12-06T07:17:12.286Z,3.83
2022-12-06T07:20:01.364Z,3.83
2022-12-06T07:22:51.999Z,4.47
2022-12-06T07:25:38.687Z,3.70
2022-12-06T07:28:28.247Z,4.03
2022-12-06T07:31:26.017Z,3.73
2022-12-06T07:34:16.602Z,4.30
2022-12-06T07:37:05.626Z,4.03
2022-12-06T07:39:53.684Z,4.03
2022-12-06T07:43:00.655Z,4.23
2022-12-06T07:45:49.803Z,4.03
2022-12-06T07:48:38.939Z,3.80
2022-12-06T07:51:25.543Z,4.47
2022-12-06T07:54:15.281Z,4.47
2022-12-06T07:57:07.861Z,4.10
2022-12-06T07:59:55.728Z,3.93
2022-12-06T08:02:43.198Z,4.20
2022-12-06T08:08:33.670Z,4.23
2022-12-06T08:11:23.107Z,5.23
2022-12-06T08:14:28.244Z,3.83
2022-12-06T08:17:28.867Z,4.23
2022-12-06T08:20:17.855Z,4.17
2022-12-06T08:23:06.431Z,4.63
2022-12-06T08:26:01.952Z,4.63
2022-12-06T08:28:51.899Z,4.47
2022-12-06T08:31:42.138Z,4.00
2022-12-06T08:34:28.800Z,4.53
2022-12-06T08:37:17.558Z,4.70
2022-12-06T08:40:21.213Z,4.77
2022-12-06T08:43:10.431Z,4.17
2022-12-06T08:45:57.002Z,4.13
2022-12-06T08:49:11.655Z,4.73
2022-12-06T08:52:18.466Z,4.70
2022-12-06T08:55:05.786Z,5.10
2022-12-06T08:58:01.989Z,5.70
2022-12-06T09:00:50.609Z,5.10
2022-12-06T09:03:37.218Z,5.63
2022-12-06T09:07:16.422Z,5.00
2022-12-06T09:10:06.755Z,4.83
2022-12-06T09:13:18.374Z,5.10
2022-12-06T09:16:07.362Z,4.90
2022-12-06T09:18:56.145Z,5.67
2022-12-06T09:21:44.153Z,5.50
2022-12-06T09:24:32.929Z,5.13
2022-12-06T09:27:28.311Z,5.33
2022-12-06T09:30:15.652Z,5.47
2022-12-06T09:33:33.268Z,4.33
2022-12-06T09:36:29.352Z,4.70
2022-12-06T09:39:48.502Z,5.73
2022-12-06T09:43:10.000Z,4.60
2022-12-06T09:46:34.509Z,4.57
2022-12-06T09:49:35.492Z,5.10
2022-12-06T09:53:32.943Z,4.73
2022-12-06T09:56:33.186Z,4.13
2022-12-06T09:59:48.743Z,4.10
2022-12-06T10:03:53.159Z,4.43
2022-12-06T10:06:53.546Z,4.27
2022-12-06T10:10:22.354Z,4.37
2022-12-06T10:13:24.182Z,3.83
2022-12-06T10:17:00.281Z,3.93
2022-12-06T10:20:07.203Z,3.67
2022-12-06T10:23:18.148Z,3.60
2022-12-06T10:26:19.502Z,3.60
2022-12-06T10:29:50.117Z,3.83
2022-12-06T10:33:12.085Z,3.40
2022-12-06T10:36:10.224Z,3.23
2022-12-06T10:39:12.381Z,3.30
2022-12-06T10:42:57.777Z,3.47
2022-12-06T10:46:09.588Z,3.27
2022-12-06T10:49:24.958Z,3.40
2022-12-06T10:53:16.033Z,4.50
2022-12-06T10:56:49.481Z,3.83
2022-12-06T10:59:44.341Z,3.40
2022-12-06T11:02:47.633Z,3.50
2022-12-06T11:05:52.206Z,3.60
2022-12-06T11:09:29.138Z,3.57
2022-12-06T11:13:02.729Z,3.23
2022-12-06T11:16:15.474Z,3.03
2022-12-06T11:19:32.523Z,3.30
2022-12-06T11:22:54.664Z,3.33
2022-12-06T11:26:15.507Z,3.73
2022-12-06T11:29:15.064Z,3.13
2022-12-06T11:32:27.766Z,3.77
2022-12-06T11:35:49.542Z,4.00
2022-12-06T11:38:47.601Z,3.60
2022-12-06T11:41:42.019Z,4.30
2022-12-06T11:45:16.002Z,3.70
2022-12-06T11:48:36.368Z,3.50
2022-12-06T11:51:29.538Z,3.40
2022-12-06T11:55:03.478Z,3.63
2022-12-06T11:58:14.239Z,4.07
2022-12-06T12:01:05.279Z,3.60
2022-12-06T12:03:54.230Z,3.60
2022-12-06T12:07:16.443Z,3.77
2022-12-06T12:10:45.826Z,3.50
2022-12-06T12:13:50.039Z,3.97
2022-12-06T12:16:52.486Z,3.73
2022-12-06T12:20:00.134Z,4.03
2022-12-06T12:22:53.477Z,3.90
2022-12-06T12:25:48.137Z,3.87
2022-12-06T12:28:47.371Z,3.90
2022-12-06T12:31:36.062Z,3.50
2022-12-06T12:34:50.218Z,3.50
2022-12-06T12:37:38.584Z,3.77
2022-12-06T12:40:50.706Z,3.63
2022-12-06T12:44:39.841Z,4.27
2022-12-06T12:48:42.271Z,4.03
2022-12-06T12:55:26.853Z,3.70
2022-12-06T12:58:13.719Z,3.23
2022-12-06T13:01:14.786Z,3.20
2022-12-06T13:04:29.230Z,2.67
2022-12-06T13:07:41.982Z,3.17
2022-12-06T13:10:38.613Z,3.00
2022-12-06T13:13:39.696Z,3.03
2022-12-06T13:16:38.394Z,3.30
2022-12-06T13:19:53.827Z,3.10
2022-12-06T13:22:45.988Z,3.20
2022-12-06T13:25:36.763Z,3.10
2022-12-06T13:28:35.886Z,3.37
2022-12-06T13:32:05.990Z,2.83
2022-12-06T13:35:38.498Z,3.30
2022-12-06T13:38:47.857Z,3.57
2022-12-06T13:42:29.256Z,3.47
2022-12-06T13:45:43.623Z,3.70
2022-12-06T13:49:50.456Z,3.07
2022-12-06T13:53:14.798Z,3.53
2022-12-06T13:56:27.252Z,3.70
2022-12-06T13:59:55.758Z,3.60
2022-12-06T14:02:56.297Z,3.60
2022-12-06T14:06:14.773Z,4.17
2022-12-06T14:10:23.993Z,3.93
2022-12-06T14:16:21.869Z,4.30
2022-12-06T14:19:26.973Z,4.33
2022-12-06T14:22:37.335Z,4.70
2022-12-06T14:25:29.881Z,3.90
2022-12-06T14:28:19.820Z,4.17
2022-12-06T14:31:31.979Z,4.17
2022-12-06T14:34:46.166Z,4.40
2022-12-06T14:38:18.198Z,4.97
2022-12-06T14:41:26.846Z,5.10
2022-12-06T14:44:19.861Z,4.80
2022-12-06T14:47:28.587Z,4.70
2022-12-06T14:50:40.070Z,4.97
2022-12-06T14:53:40.185Z,4.70
2022-12-06T14:56:41.411Z,4.27
2022-12-06T15:02:46.372Z,4.43
2022-12-06T15:05:59.029Z,4.20
2022-12-06T15:08:53.643Z,3.93
2022-12-06T15:12:02.205Z,4.53
2022-12-06T15:14:51.481Z,4.40
2022-12-06T15:17:40.294Z,4.17
2022-12-06T15:20:32.489Z,4.20
2022-12-06T15:23:59.971Z,4.37
2022-12-06T15:26:49.849Z,3.70
2022-12-06T15:29:38.316Z,4.27
2022-12-06T15:32:30.471Z,4.47
2022-12-06T15:35:22.026Z,4.30
2022-12-06T15:38:22.008Z,4.07
2022-12-06T15:41:35.133Z,4.70
2022-12-06T15:44:29.835Z,4.27
2022-12-06T15:47:50.159Z,4.37
2022-12-06T15:50:39.307Z,4.20
2022-12-06T15:54:04.764Z,4.60
2022-12-06T15:57:19.869Z,4.60
2022-12-06T16:00:33.799Z,4.20
2022-12-06T16:03:20.396Z,4.20
2022-12-06T16:06:12.087Z,4.10
2022-12-06T16:13:07.781Z,4.30
2022-12-06T16:15:55.010Z,3.83
2022-12-06T16:18:46.408Z,3.67
2022-12-06T16:21:35.542Z,4.17
2022-12-06T16:24:30.311Z,3.80
2022-12-06T16:27:42.289Z,4.23
2022-12-06T16:30:56.482Z,3.50
2022-12-06T16:33:50.171Z,4.37
2022-12-06T16:37:00.302Z,3.93
2022-12-06T16:39:50.521Z,4.03
2022-12-06T16:42:37.691Z,3.93
2022-12-06T16:45:28.532Z,4.27
2022-12-06T16:48:31.884Z,4.30
2022-12-06T16:51:19.575Z,3.70
2022-12-06T16:54:11.699Z,4.20
2022-12-06T16:57:04.524Z,3.90
2022-12-06T16:59:51.605Z,4.17
2022-12-06T17:03:06.166Z,4.27
2022-12-06T17:06:22.885Z,3.93
2022-12-06T17:09:37.784Z,3.67
2022-12-06T17:12:50.775Z,3.67
2022-12-06T17:15:40.184Z,3.93
2022-12-06T17:18:35.903Z,3.73
2022-12-06T17:21:27.181Z,3.60
2022-12-06T17:24:23.311Z,3.53
2022-12-06T17:27:15.901Z,3.80
2022-12-06T17:30:11.667Z,3.17
2022-12-06T17:33:01.330Z,3.27
2022-12-06T17:35:53.223Z,3.17
2022-12-06T17:38:43.119Z,3.13
2022-12-06T17:42:05.589Z,3.50
2022-12-06T17:44:52.410Z,3.20
2022-12-06T17:47:48.095Z,3.43
2022-12-06T17:50:37.579Z,3.27
2022-12-06T17:53:53.907Z,3.50
2022-12-06T17:56:46.672Z,3.30
2022-12-06T17:59:44.043Z,3.80
2022-12-06T18:03:00.994Z,4.23
2022-12-06T18:05:50.987Z,3.60
2022-12-06T18:08:37.796Z,3.20
2022-12-06T18:11:36.330Z,3.57
2022-12-06T18:14:50.777Z,3.53
2022-12-06T18:17:37.311Z,3.70
2022-12-06T18:20:32.368Z,3.73
2022-12-06T18:23:23.153Z,3.83
2022-12-06T18:26:38.875Z,3.57
2022-12-06T18:29:27.598Z,4.90
2022-12-06T18:32:14.227Z,4.23
2022-12-06T18:35:02.066Z,4.63
2022-12-06T18:37:51.167Z,5.03
2022-12-06T18:40:44.649Z,5.10
2022-12-06T18:43:36.406Z,5.13
2022-12-06T18:46:30.982Z,5.33
2022-12-06T18:49:22.817Z,5.03
2022-12-06T18:52:15.066Z,6.13
2022-12-06T18:55:10.146Z,4.93
2022-12-06T18:57:58.941Z,5.40
2022-12-06T19:00:59.365Z,5.83
2022-12-06T19:04:06.791Z,5.30
2022-12-06T19:07:06.451Z,5.40
2022-12-06T19:09:55.255Z,5.77
2022-12-06T19:13:14.374Z,5.97
2022-12-06T19:16:06.092Z,5.70
2022-12-06T19:18:59.097Z,6.00
2022-12-06T19:21:59.336Z,6.00
2022-12-06T19:24:52.714Z,6.33
2022-12-06T19:28:24.123Z,5.93
2022-12-06T19:31:42.464Z,6.13
2022-12-06T19:34:34.973Z,5.40
2022-12-06T19:37:52.451Z,5.83
2022-12-06T19:41:05.146Z,5.20
2022-12-06T19:44:17.959Z,5.60
2022-12-06T19:47:08.553Z,5.47
2022-12-06T19:50:00.939Z,6.53
2022-12-06T19:52:49.668Z,6.00
2022-12-06T19:56:01.555Z,6.00
2022-12-06T19:58:48.725Z,6.10
2022-12-06T20:02:23.852Z,5.90
2022-12-06T20:05:13.067Z,6.23
2022-12-06T20:07:59.711Z,6.10
2022-12-06T20:10:46.603Z,5.63
2022-12-06T20:13:33.959Z,6.63
2022-12-06T20:16:23.035Z,6.30
2022-12-06T20:19:16.416Z,6.60
2022-12-06T20:22:05.561Z,5.97
2022-12-06T20:24:55.161Z,6.53
2022-12-06T20:27:57.544Z,6.30
2022-12-06T20:30:50.113Z,5.70
2022-12-06T20:33:40.822Z,6.33
2022-12-06T20:36:44.811Z,6.50
2022-12-06T20:39:41.588Z,6.40
2022-12-06T20:42:28.688Z,6.10
2022-12-06T20:45:44.213Z,6.13
2022-12-06T20:48:32.905Z,5.60
2022-12-06T20:51:39.170Z,5.93
2022-12-06T20:54:58.669Z,6.10
2022-12-06T20:57:47.660Z,6.10
2022-12-06T21:01:00.341Z,6.63
2022-12-06T21:03:48.473Z,5.83
2022-12-06T21:06:39.671Z,6.10
2022-12-06T21:09:30.171Z,5.93
2022-12-06T21:12:26.841Z,5.57
2022-12-06T21:15:16.822Z,5.70
2022-12-06T21:18:56.082Z,6.27
2022-12-06T21:21:59.876Z,5.80
2022-12-06T21:25:14.955Z,5.53
2022-12-06T21:28:54.969Z,4.67
2022-12-06T21:31:50.193Z,5.00
2022-12-06T21:35:12.193Z,4.60
2022-12-06T21:38:25.881Z,3.47
2022-12-06T21:41:16.844Z,4.40
2022-12-06T21:44:09.631Z,4.23
2022-12-06T21:47:01.369Z,4.30
2022-12-06T21:49:50.963Z,4.30
2022-12-06T21:52:50.380Z,4.00
2022-12-06T21:55:41.656Z,4.90
2022-12-06T21:58:33.881Z,4.77
2022-12-06T22:01:48.763Z,4.60
2022-12-06T22:04:45.199Z,4.70
2022-12-06T22:07:56.614Z,4.87
2022-12-06T22:11:10.088Z,5.90
2022-12-06T22:14:23.159Z,5.40
2022-12-06T22:17:11.952Z,5.37
2022-12-06T22:20:04.551Z,5.87
2022-12-06T22:22:53.389Z,5.43
2022-12-06T22:25:45.794Z,4.97
2022-12-06T22:28:59.749Z,4.97
2022-12-06T22:31:47.194Z,5.20
2022-12-06T22:34:36.160Z,4.37
2022-12-06T22:37:28.605Z,5.00
2022-12-06T22:41:09.228Z,5.63
2022-12-06T22:44:08.016Z,4.90
2022-12-06T22:46:56.739Z,4.53
2022-12-06T22:50:10.396Z,4.73
2022-12-06T22:53:01.050Z,3.97
2022-12-06T22:56:16.870Z,4.77
2022-12-06T22:59:04.012Z,4.30
2022-12-06T23:02:22.936Z,4.10
2022-12-06T23:05:10.181Z,4.10
2022-12-06T23:08:02.853Z,4.63
2022-12-06T23:10:52.168Z,4.23
2022-12-06T23:14:11.505Z,4.60
2022-12-06T23:17:00.518Z,4.30
2022-12-06T23:19:49.269Z,4.60
2022-12-06T23:22:38.134Z,4.43
2022-12-06T23:25:28.299Z,3.87
2022-12-06T23:28:17.169Z,4.20
2022-12-06T23:31:07.742Z,3.87
2022-12-06T23:34:04.385Z,4.07
2022-12-06T23:36:55.761Z,3.70
2022-12-06T23:39:42.749Z,3.97
2022-12-06T23:42:41.968Z,4.20
2022-12-06T23:45:28.438Z,3.80
2022-12-06T23:49:08.434Z,4.13
2022-12-06T23:51:54.988Z,4.00
2022-12-06T23:54:44.885Z,3.93
2022-12-06T23:57:43.539Z,4.50
